Airport Name : Kosice

Other Name : Kosice

ICAO : LZKZ

IATA : KSC

FAA :

Latitude : 48.663055

Longitude : 21.241112

Country : Slovakia

Local Date and Time : 8/22/2018 7:46:00 AM

 

TAF (Terminal Aerodrome Forecast)

TAF LZKZ 220500Z 2206/2306 01010KT CAVOK BECMG 2214/2216 04008KT

 

METAR (METeorological Aerodrome Report)

LZKZ 220530Z 01011KT CAVOK 21/12 Q1020 NOSIG

LZKZ 220500Z 36012KT CAVOK 20/13 Q1020 NOSIG

LZKZ 220430Z 36012KT CAVOK 20/13 Q1020 NOSIG

LZKZ 220400Z 01010KT CAVOK 20/13 Q1020

LZKZ 220330Z 01010KT CAVOK 21/13 Q1020

LZKZ 220300Z 01008KT CAVOK 21/13 Q1020

LZKZ 220230Z 36008KT CAVOK 20/13 Q1020

LZKZ 220200Z 36011KT CAVOK 20/13 Q1020